Time;durP1;ratioP1;P1;durP2;ratioP2;P2;SDS_P1;SDS_P2;PMS_P1;PMS_P2;Temp;Humidity;BMP_temperature;BMP_pressure;BME280_temperature;BME280_humidity;BME280_pressure;Samples;Min_cycle;Max_cycle;Signal;HPM_P1;HPM_P2
2023/10/28 00:00:05;;;;;;;11.77;11.07;;;;;;;-141.22;100.00;65034.22;5038990;28;20797;-39
2023/10/28 00:02:34;;;;;;;11.50;11.10;;;;;;;-141.22;100.00;65034.22;5039454;28;20440;-38
2023/10/28 00:05:02;;;;;;;13.17;12.50;;;;;;;-141.22;100.00;65034.22;5038953;28;20801;-41
2023/10/28 00:07:30;;;;;;;13.07;12.53;;;;;;;-141.22;100.00;65034.22;5039696;28;20457;-43
2023/10/28 00:09:57;;;;;;;14.53;13.63;;;;;;;-141.22;100.00;65034.22;5038633;28;20460;-40
2023/10/28 00:12:27;;;;;;;13.93;12.93;;;;;;;-141.22;100.00;65034.22;5031981;28;20436;-39
2023/10/28 00:14:54;;;;;;;12.73;12.03;;;;;;;-141.22;100.00;65034.22;5039143;28;20510;-42
2023/10/28 00:17:24;;;;;;;12.33;11.50;;;;;;;-141.22;100.00;65034.22;5039426;28;20456;-39
2023/10/28 00:19:51;;;;;;;13.37;12.57;;;;;;;-141.22;100.00;65034.22;5038659;28;20540;-41
2023/10/28 00:22:19;;;;;;;12.67;12.07;;;;;;;-141.22;100.00;65034.22;5038286;28;20447;-39
2023/10/28 00:24:47;;;;;;;12.23;11.43;;;;;;;-141.22;100.00;65034.22;5038579;28;20475;-44
2023/10/28 00:27:15;;;;;;;12.67;12.07;;;;;;;-141.22;100.00;65034.22;5038630;28;20456;-39
2023/10/28 00:29:48;;;;;;;13.40;12.70;;;;;;;-141.22;100.00;65034.22;5038946;28;20577;-41
2023/10/28 00:32:16;;;;;;;12.93;12.23;;;;;;;-141.22;100.00;65034.22;5038980;28;20459;-39
2023/10/28 00:34:45;;;;;;;14.00;13.00;;;;;;;-141.22;100.00;65034.22;5039018;28;20548;-39
2023/10/28 00:37:13;;;;;;;12.77;12.07;;;;;;;-141.22;100.00;65034.22;5035756;28;20452;-41
2023/10/28 00:39:42;;;;;;;13.13;12.23;;;;;;;-141.22;100.00;65034.22;5039182;28;20518;-39
2023/10/28 00:42:13;;;;;;;12.43;11.80;;;;;;;-141.22;100.00;65034.22;5038818;28;20451;-39
2023/10/28 00:44:41;;;;;;;12.67;11.97;;;;;;;-141.22;100.00;65034.22;5032662;28;20801;-40
2023/10/28 00:47:09;;;;;;;13.50;12.70;;;;;;;-141.22;100.00;65034.22;5038157;28;20464;-39
2023/10/28 00:49:38;;;;;;;13.57;12.67;;;;;;;-141.22;100.00;65034.22;5038405;28;20892;-39
2023/10/28 00:52:07;;;;;;;12.67;11.97;;;;;;;-141.22;100.00;65034.22;5038919;28;20439;-39
2023/10/28 00:54:35;;;;;;;14.00;13.33;;;;;;;-141.22;100.00;65034.22;5038601;28;20813;-39
2023/10/28 00:57:04;;;;;;;13.53;12.90;;;;;;;-141.22;100.00;65034.22;5038093;28;20436;-40
2023/10/28 00:59:32;;;;;;;14.50;13.70;;;;;;;-141.22;100.00;65034.22;5038260;28;20456;-42
2023/10/28 01:02:00;;;;;;;13.23;12.40;;;;;;;-141.22;100.00;65034.22;5038897;28;20436;-39
2023/10/28 01:04:28;;;;;;;13.63;12.93;;;;;;;-141.22;100.00;65034.22;5034164;28;20439;-41
2023/10/28 01:06:56;;;;;;;14.27;13.47;;;;;;;-141.22;100.00;65034.22;5034582;28;20463;-39
2023/10/28 01:09:25;;;;;;;13.63;12.87;;;;;;;-141.22;100.00;65034.22;5037980;28;21021;-40
2023/10/28 01:11:54;;;;;;;12.33;11.63;;;;;;;-141.22;100.00;65034.22;5039446;28;20468;-39
2023/10/28 01:14:21;;;;;;;13.80;13.00;;;;;;;-141.22;100.00;65034.22;5038631;28;20525;-38
2023/10/28 01:16:49;;;;;;;15.83;14.60;;;;;;;-141.22;100.00;65034.22;5038132;28;20432;-38
2023/10/28 01:19:17;;;;;;;14.70;13.90;;;;;;;-141.22;100.00;65034.22;5037569;28;20471;-41
2023/10/28 01:21:46;;;;;;;14.60;13.83;;;;;;;-141.22;100.00;65034.22;5038833;28;20492;-39
2023/10/28 01:24:14;;;;;;;12.47;11.77;;;;;;;-141.22;100.00;65034.22;5035540;28;20970;-39
2023/10/28 01:26:42;;;;;;;12.27;11.70;;;;;;;-141.22;100.00;65034.22;5037945;28;20439;-39
2023/10/28 01:29:10;;;;;;;11.73;11.23;;;;;;;-141.22;100.00;65034.22;5037478;28;20876;-39
2023/10/28 01:31:38;;;;;;;12.83;11.77;;;;;;;-141.22;100.00;65034.22;5037869;28;20796;-39
2023/10/28 01:34:06;;;;;;;12.80;12.10;;;;;;;-141.22;100.00;65034.22;5040463;28;20474;-38
2023/10/28 01:36:34;;;;;;;19.97;13.07;;;;;;;-141.22;100.00;65034.22;5034799;28;20432;-39
2023/10/28 01:39:03;;;;;;;12.80;12.07;;;;;;;-141.22;100.00;65034.22;5041510;28;20456;-39
2023/10/28 01:41:30;;;;;;;12.67;11.97;;;;;;;-141.22;100.00;65034.22;5042000;28;20435;-39
2023/10/28 01:43:58;;;;;;;13.23;12.43;;;;;;;-141.22;100.00;65034.22;5041651;28;20786;-38
2023/10/28 01:46:29;;;;;;;14.13;12.93;;;;;;;-141.22;100.00;65034.22;5041770;28;20452;-40
2023/10/28 01:48:57;;;;;;;13.10;12.50;;;;;;;-141.22;100.00;65034.22;5041404;28;20470;-41
2023/10/28 01:51:24;;;;;;;13.43;12.80;;;;;;;-141.22;100.00;65034.22;5042594;28;20867;-41
2023/10/28 01:53:52;;;;;;;13.00;12.20;;;;;;;-141.22;100.00;65034.22;5041394;28;20428;-42
2023/10/28 01:56:21;;;;;;;13.13;12.50;;;;;;;-141.22;100.00;65034.22;5041548;28;20486;-39
2023/10/28 01:58:49;;;;;;;14.40;13.03;;;;;;;-141.22;100.00;65034.22;5040955;28;20490;-41
2023/10/28 02:01:17;;;;;;;13.30;12.60;;;;;;;-141.22;100.00;65034.22;5041631;28;20428;-39
2023/10/28 02:03:45;;;;;;;13.13;12.43;;;;;;;-141.22;100.00;65034.22;5041911;28;20458;-41
2023/10/28 02:06:12;;;;;;;13.57;12.97;;;;;;;-141.22;100.00;65034.22;5041553;28;20456;-41
2023/10/28 02:08:40;;;;;;;14.07;13.17;;;;;;;-141.22;100.00;65034.22;5041590;28;20452;-39
2023/10/28 02:11:08;;;;;;;14.00;13.30;;;;;;;-141.22;100.00;65034.22;5041444;28;20890;-39
2023/10/28 02:13:37;;;;;;;14.23;13.13;;;;;;;-141.22;100.00;65034.22;5041218;28;20432;-40
2023/10/28 02:16:05;;;;;;;13.93;12.87;;;;;;;-141.22;100.00;65034.22;5040332;28;20472;-38
2023/10/28 02:18:33;;;;;;;13.30;12.23;;;;;;;-141.22;100.00;65034.22;5040967;28;21051;-39
2023/10/28 02:21:01;;;;;;;14.20;13.23;;;;;;;-141.22;100.00;65034.22;5041018;28;20432;-39
2023/10/28 02:23:29;;;;;;;12.60;12.00;;;;;;;-141.22;100.00;65034.22;5041472;28;20428;-40
2023/10/28 02:25:56;;;;;;;14.50;13.60;;;;;;;-141.22;100.00;65034.22;5040744;28;20920;-39
2023/10/28 02:28:24;;;;;;;14.40;13.40;;;;;;;-141.22;100.00;65034.22;5040348;28;20452;-39
2023/10/28 02:30:53;;;;;;;13.70;13.00;;;;;;;-141.22;100.00;65034.22;5041097;28;20436;-41
2023/10/28 02:33:20;;;;;;;14.30;13.23;;;;;;;-141.22;100.00;65034.22;5041144;28;20464;-39
2023/10/28 02:35:48;;;;;;;14.47;13.60;;;;;;;-141.22;100.00;65034.22;5039573;28;20468;-38
2023/10/28 02:38:16;;;;;;;14.30;13.50;;;;;;;-141.22;100.00;65034.22;5041507;28;20452;-39
2023/10/28 02:40:47;;;;;;;13.80;13.00;;;;;;;-141.22;100.00;65034.22;5040482;28;20459;-39
2023/10/28 02:43:15;;;;;;;14.70;13.73;;;;;;;-141.22;100.00;65034.22;5041181;28;20447;-39
2023/10/28 02:45:43;;;;;;;13.63;12.73;;;;;;;-141.22;100.00;65034.22;5039652;28;20962;-41
2023/10/28 02:48:12;;;;;;;13.47;12.67;;;;;;;-141.22;100.00;65034.22;5040571;28;20539;-39
2023/10/28 02:50:40;;;;;;;13.43;12.73;;;;;;;-141.22;100.00;65034.22;5040048;28;20467;-39
2023/10/28 02:53:08;;;;;;;13.47;12.70;;;;;;;-141.22;100.00;65034.22;5040474;28;20884;-39
2023/10/28 02:55:37;;;;;;;12.83;12.03;;;;;;;-141.22;100.00;65034.22;5040369;28;20891;-40
2023/10/28 02:58:04;;;;;;;12.23;11.57;;;;;;;-141.22;100.00;65034.22;5039932;28;20452;-39
2023/10/28 03:00:32;;;;;;;12.53;11.80;;;;;;;-141.22;100.00;65034.22;5033657;28;20875;-40
2023/10/28 03:03:02;;;;;;;13.13;12.13;;;;;;;-141.22;100.00;65034.22;5036244;28;20486;-39
2023/10/28 03:05:32;;;;;;;13.90;13.00;;;;;;;-141.22;100.00;65034.22;5039237;28;20434;-41
2023/10/28 03:07:59;;;;;;;13.57;12.67;;;;;;;-141.22;100.00;65034.22;5038793;28;20487;-38
2023/10/28 03:10:27;;;;;;;13.60;12.90;;;;;;;-141.22;100.00;65034.22;5039181;28;20457;-41
2023/10/28 03:12:55;;;;;;;13.73;12.80;;;;;;;-141.22;100.00;65034.22;5040211;28;20898;-41
2023/10/28 03:15:24;;;;;;;13.70;13.10;;;;;;;-141.22;100.00;65034.22;5040003;28;20475;-39
2023/10/28 03:17:52;;;;;;;13.53;12.73;;;;;;;-141.22;100.00;65034.22;5039605;28;20535;-39
2023/10/28 03:20:20;;;;;;;13.17;12.37;;;;;;;-141.22;100.00;65034.22;5033629;28;20484;-44
2023/10/28 03:22:50;;;;;;;13.10;12.40;;;;;;;-141.22;100.00;65034.22;5033009;28;20436;-40
2023/10/28 03:25:18;;;;;;;13.10;12.50;;;;;;;-141.22;100.00;65034.22;5033022;28;20444;-41
2023/10/28 03:27:46;;;;;;;13.40;12.80;;;;;;;-141.22;100.00;65034.22;5032863;28;20456;-42
2023/10/28 03:30:14;;;;;;;13.80;13.03;;;;;;;-141.22;100.00;65034.22;5032388;28;20484;-40
2023/10/28 03:32:42;;;;;;;13.13;12.33;;;;;;;-141.22;100.00;65034.22;5032993;28;20439;-39
2023/10/28 03:35:10;;;;;;;13.40;12.70;;;;;;;-141.22;100.00;65034.22;5032811;28;20440;-39
2023/10/28 03:37:37;;;;;;;13.20;12.50;;;;;;;-141.22;100.00;65034.22;5024905;28;21014;-38
2023/10/28 03:40:09;;;;;;;14.47;13.27;;;;;;;-141.22;100.00;65034.22;5032538;28;20583;-41
2023/10/28 03:42:37;;;;;;;13.83;13.10;;;;;;;-141.22;100.00;65034.22;5033127;28;20519;-40
2023/10/28 03:45:05;;;;;;;14.50;13.50;;;;;;;-141.22;100.00;65034.22;5032860;28;20441;-40
2023/10/28 03:47:34;;;;;;;13.83;13.13;;;;;;;-141.22;100.00;65034.22;5032380;28;20574;-40
2023/10/28 03:50:01;;;;;;;12.97;12.33;;;;;;;-141.22;100.00;65034.22;5032226;28;20523;-40
2023/10/28 03:52:29;;;;;;;14.10;12.83;;;;;;;-141.22;100.00;65034.22;5032862;28;20494;-40
2023/10/28 03:54:57;;;;;;;12.40;11.70;;;;;;;-141.22;100.00;65034.22;5032543;28;20437;-44
2023/10/28 03:57:26;;;;;;;14.07;13.37;;;;;;;-141.22;100.00;65034.22;5031352;28;20844;-40
2023/10/28 03:59:54;;;;;;;15.13;14.27;;;;;;;-141.22;100.00;65034.22;5031841;28;20487;-39
2023/10/28 04:02:21;;;;;;;14.37;13.57;;;;;;;-141.22;100.00;65034.22;5032157;28;20436;-41
2023/10/28 04:04:49;;;;;;;13.43;12.63;;;;;;;-141.22;100.00;65034.22;5032674;28;20444;-40
2023/10/28 04:07:17;;;;;;;15.50;14.40;;;;;;;-141.22;100.00;65034.22;5032332;28;20452;-43
2023/10/28 04:09:44;;;;;;;14.70;13.90;;;;;;;-141.22;100.00;65034.22;5032243;28;20461;-39
2023/10/28 04:12:12;;;;;;;14.53;13.53;;;;;;;-141.22;100.00;65034.22;5032505;28;20487;-39
2023/10/28 04:14:41;;;;;;;15.13;14.03;;;;;;;-141.22;100.00;65034.22;5030017;28;20432;-40
2023/10/28 04:17:09;;;;;;;13.83;13.13;;;;;;;-141.22;100.00;65034.22;5031730;28;21010;-39
2023/10/28 04:19:37;;;;;;;14.63;13.83;;;;;;;-141.22;100.00;65034.22;5023914;28;20546;-42
2023/10/28 04:22:06;;;;;;;15.00;14.10;;;;;;;-141.22;100.00;65034.22;5031956;28;20528;-40
2023/10/28 04:24:34;;;;;;;15.47;14.57;;;;;;;-141.22;100.00;65034.22;5032448;28;20519;-40
2023/10/28 04:27:02;;;;;;;15.17;14.27;;;;;;;-141.22;100.00;65034.22;5031854;28;20443;-39
2023/10/28 04:29:29;;;;;;;15.50;14.40;;;;;;;-141.22;100.00;65034.22;5031384;28;20468;-39
2023/10/28 04:31:59;;;;;;;15.07;14.20;;;;;;;-141.22;100.00;65034.22;5032068;28;20507;-42
2023/10/28 04:34:27;;;;;;;15.50;14.63;;;;;;;-141.22;100.00;65034.22;5032050;28;20433;-39
2023/10/28 04:37:14;;;;;;;14.70;13.90;;;;;;;-141.22;100.00;65034.22;5031436;28;20506;-39
2023/10/28 04:39:42;;;;;;;15.73;14.73;;;;;;;-141.22;100.00;65034.22;5031643;28;20899;-40
2023/10/28 04:42:10;;;;;;;16.03;14.87;;;;;;;-141.22;100.00;65034.22;5031881;28;20436;-43
2023/10/28 04:44:37;;;;;;;15.07;14.37;;;;;;;-141.22;100.00;65034.22;5023572;28;20486;-39
2023/10/28 04:47:06;;;;;;;14.80;14.00;;;;;;;-141.22;100.00;65034.22;5031492;28;20527;-39
2023/10/28 04:49:34;;;;;;;16.10;15.17;;;;;;;-141.22;100.00;65034.22;5031505;28;20819;-41
2023/10/28 04:52:03;;;;;;;17.03;16.03;;;;;;;-141.22;100.00;65034.22;5031571;28;20434;-40
2023/10/28 04:54:31;;;;;;;15.17;14.27;;;;;;;-141.22;100.00;65034.22;5031441;28;20439;-40
2023/10/28 04:57:00;;;;;;;16.20;15.10;;;;;;;-141.22;100.00;65034.22;5026202;28;20988;-41
2023/10/28 04:59:28;;;;;;;14.27;13.47;;;;;;;-141.22;100.00;65034.22;5031230;28;20452;-39
2023/10/28 05:01:57;;;;;;;15.80;14.80;;;;;;;-141.22;100.00;65034.22;5031967;28;20836;-40
2023/10/28 05:04:27;;;;;;;16.63;15.63;;;;;;;-141.22;100.00;65034.22;5031117;28;20432;-40
2023/10/28 05:06:55;;;;;;;17.80;16.70;;;;;;;-141.22;100.00;65034.22;5031121;28;20942;-39
2023/10/28 05:09:23;;;;;;;15.23;14.23;;;;;;;-141.22;100.00;65034.22;5031057;28;21163;-39
2023/10/28 05:11:53;;;;;;;14.77;13.87;;;;;;;-141.22;100.00;65034.22;5031682;28;20900;-40
2023/10/28 05:14:21;;;;;;;16.20;15.00;;;;;;;-141.22;100.00;65034.22;5029733;28;21142;-42
2023/10/28 05:16:49;;;;;;;16.50;15.33;;;;;;;-141.22;100.00;65034.22;5031229;28;20472;-39
2023/10/28 05:19:18;;;;;;;16.93;15.90;;;;;;;-141.22;100.00;65034.22;5030954;28;20466;-40
2023/10/28 05:21:48;;;;;;;15.33;14.43;;;;;;;-141.22;100.00;65034.22;5032112;28;20523;-40
2023/10/28 05:24:16;;;;;;;16.07;14.93;;;;;;;-141.22;100.00;65034.22;5031136;28;20454;-39
2023/10/28 05:26:43;;;;;;;16.17;15.23;;;;;;;-141.22;100.00;65034.22;5031248;28;20428;-41
2023/10/28 05:29:11;;;;;;;17.07;15.67;;;;;;;-141.22;100.00;65034.22;5030915;28;20506;-42
2023/10/28 05:31:39;;;;;;;16.30;15.40;;;;;;;-141.22;100.00;65034.22;5031153;28;20427;-41
2023/10/28 05:34:07;;;;;;;16.90;15.90;;;;;;;-141.22;100.00;65034.22;5030950;28;20442;-40
2023/10/28 05:36:34;;;;;;;17.07;15.97;;;;;;;-141.22;100.00;65034.22;5030386;28;20489;-39
2023/10/28 05:39:04;;;;;;;16.17;15.07;;;;;;;-141.22;100.00;65034.22;5030692;28;20910;-41
2023/10/28 05:41:32;;;;;;;15.47;14.47;;;;;;;-141.22;100.00;65034.22;5030898;28;20935;-41
2023/10/28 05:44:00;;;;;;;15.40;14.40;;;;;;;-141.22;100.00;65034.22;5029557;28;20444;-39
2023/10/28 05:46:28;;;;;;;14.90;13.90;;;;;;;-141.22;100.00;65034.22;5028959;28;20435;-43
2023/10/28 05:48:56;;;;;;;14.67;13.77;;;;;;;-141.22;100.00;65034.22;5029117;28;20467;-39
2023/10/28 05:51:24;;;;;;;16.47;15.23;;;;;;;-141.22;100.00;65034.22;5029783;28;20435;-40
2023/10/28 05:53:52;;;;;;;15.20;14.10;;;;;;;-141.22;100.00;65034.22;5029543;28;20482;-41
2023/10/28 05:56:21;;;;;;;14.57;13.77;;;;;;;-141.22;100.00;65034.22;5029459;28;20918;-40
2023/10/28 05:58:48;;;;;;;13.90;13.00;;;;;;;-141.22;100.00;65034.22;5028886;28;20510;-39
2023/10/28 06:01:16;;;;;;;14.93;14.03;;;;;;;-141.22;100.00;65034.22;5029359;28;20459;-42
2023/10/28 06:03:44;;;;;;;16.50;15.30;;;;;;;-141.22;100.00;65034.22;5030074;28;20778;-43
2023/10/28 06:06:12;;;;;;;14.13;13.30;;;;;;;-141.22;100.00;65034.22;5029398;28;20440;-39
2023/10/28 06:08:39;;;;;;;13.60;12.80;;;;;;;-141.22;100.00;65034.22;5029099;28;20470;-42
2023/10/28 06:11:09;;;;;;;14.93;13.90;;;;;;;-141.22;100.00;65034.22;5029674;28;20428;-39
2023/10/28 06:13:39;;;;;;;13.60;12.90;;;;;;;-141.22;100.00;65034.22;5029247;28;20439;-40
2023/10/28 06:16:07;;;;;;;14.27;13.47;;;;;;;-141.22;100.00;65034.22;5029872;28;20436;-39
2023/10/28 06:18:34;;;;;;;15.40;14.47;;;;;;;-141.22;100.00;65034.22;5023618;28;20542;-39
2023/10/28 06:21:03;;;;;;;15.90;14.67;;;;;;;-141.22;100.00;65034.22;5032961;28;20495;-44
2023/10/28 06:23:30;;;;;;;14.67;13.70;;;;;;;-141.22;100.00;65034.22;5032961;28;20519;-38
2023/10/28 06:25:58;;;;;;;15.03;14.03;;;;;;;-141.22;100.00;65034.22;5032555;28;20427;-44
2023/10/28 06:28:26;;;;;;;14.13;13.30;;;;;;;-141.22;100.00;65034.22;5032602;28;20487;-44
2023/10/28 06:30:55;;;;;;;15.87;14.97;;;;;;;-141.22;100.00;65034.22;5068538;22;20559;-41
2023/10/28 06:33:24;;;;;;;15.10;14.20;;;;;;;-141.22;100.00;65034.22;5020363;28;20505;-41
2023/10/28 06:35:51;;;;;;;14.13;13.17;;;;;;;-141.22;100.00;65034.22;5026162;28;20468;-44
2023/10/28 06:38:19;;;;;;;14.33;13.43;;;;;;;-141.22;100.00;65034.22;5024479;28;20844;-41
2023/10/28 06:40:47;;;;;;;16.43;15.33;;;;;;;-141.22;100.00;65034.22;5032129;28;20483;-43
2023/10/28 06:43:16;;;;;;;15.67;14.60;;;;;;;-141.22;100.00;65034.22;5032004;28;20529;-41
2023/10/28 06:45:43;;;;;;;16.40;15.30;;;;;;;-141.22;100.00;65034.22;5032060;28;20482;-41
2023/10/28 06:48:13;;;;;;;15.93;15.00;;;;;;;-141.22;100.00;65034.22;5032095;28;20833;-41
2023/10/28 06:50:41;;;;;;;16.90;15.90;;;;;;;-141.22;100.00;65034.22;5031071;28;20546;-44
2023/10/28 06:53:09;;;;;;;16.50;15.60;;;;;;;-141.22;100.00;65034.22;5031523;28;20452;-43
2023/10/28 06:55:36;;;;;;;16.23;15.33;;;;;;;-141.22;100.00;65034.22;5032235;28;20443;-42
2023/10/28 06:58:04;;;;;;;17.83;16.63;;;;;;;-141.22;100.00;65034.22;5032305;28;20480;-41
2023/10/28 07:00:32;;;;;;;16.10;15.30;;;;;;;-141.22;100.00;65034.22;5030682;28;20464;-40
2023/10/28 07:03:00;;;;;;;16.10;15.10;;;;;;;-141.22;100.00;65034.22;5031167;28;20436;-40
2023/10/28 07:05:29;;;;;;;14.77;13.97;;;;;;;-141.22;100.00;65034.22;5030689;28;20444;-40
2023/10/28 07:07:57;;;;;;;15.67;14.77;;;;;;;-141.22;100.00;65034.22;5031440;28;20436;-40
2023/10/28 07:10:25;;;;;;;15.00;14.20;;;;;;;-141.22;100.00;65034.22;5030583;28;20843;-41
2023/10/28 07:12:53;;;;;;;16.77;15.67;;;;;;;-141.22;100.00;65034.22;5031578;28;20799;-40
2023/10/28 07:15:21;;;;;;;15.73;14.70;;;;;;;-141.22;100.00;65034.22;5031206;28;20491;-40
2023/10/28 07:17:49;;;;;;;16.13;14.93;;;;;;;-141.22;100.00;65034.22;5031432;28;21201;-42
2023/10/28 07:20:19;;;;;;;15.27;14.37;;;;;;;-141.22;100.00;65034.22;5030247;28;20472;-42
2023/10/28 07:22:49;;;;;;;17.60;16.17;;;;;;;-141.22;100.00;65034.22;5031307;28;20436;-41
2023/10/28 07:25:17;;;;;;;16.80;15.70;;;;;;;-141.22;100.00;65034.22;5031226;28;20950;-41
2023/10/28 07:27:46;;;;;;;16.10;15.00;;;;;;;-141.22;100.00;65034.22;5030784;28;20539;-42
2023/10/28 07:30:13;;;;;;;16.47;15.37;;;;;;;-141.22;100.00;65034.22;5029719;28;20506;-41
2023/10/28 07:32:41;;;;;;;15.70;14.77;;;;;;;-141.22;100.00;65034.22;5030843;28;20527;-41
2023/10/28 07:35:10;;;;;;;14.83;13.93;;;;;;;-141.22;100.00;65034.22;5028692;28;21205;-42
2023/10/28 07:37:38;;;;;;;14.63;13.77;;;;;;;-141.22;100.00;65034.22;5029822;28;20444;-44
2023/10/28 07:40:11;;;;;;;15.27;14.37;;;;;;;-141.22;100.00;65034.22;5035171;28;20571;-42
2023/10/28 07:42:38;;;;;;;15.63;14.83;;;;;;;-141.22;100.00;65034.22;5032096;28;20440;-41
2023/10/28 07:45:07;;;;;;;17.47;16.17;;;;;;;-141.22;100.00;65034.22;5032160;28;20605;-43
2023/10/28 07:47:35;;;;;;;16.33;15.43;;;;;;;-141.22;100.00;65034.22;5031677;28;20436;-41
2023/10/28 07:50:04;;;;;;;15.00;14.20;;;;;;;-141.22;100.00;65034.22;5031302;28;20475;-41
2023/10/28 07:52:32;;;;;;;14.20;13.50;;;;;;;-141.22;100.00;65034.22;5031773;28;20490;-43
2023/10/28 07:55:00;;;;;;;15.73;14.50;;;;;;;-141.22;100.00;65034.22;5032041;28;20444;-41
2023/10/28 07:57:30;;;;;;;13.73;12.83;;;;;;;-141.22;100.00;65034.22;5031718;28;20501;-42
2023/10/28 07:59:58;;;;;;;14.53;13.73;;;;;;;-141.22;100.00;65034.22;5031385;28;20547;-41
2023/10/28 08:02:25;;;;;;;14.33;13.20;;;;;;;-141.22;100.00;65034.22;5032768;28;20441;-44
2023/10/28 08:04:54;;;;;;;13.53;12.83;;;;;;;-141.22;100.00;65034.22;5024108;28;21134;-40
2023/10/28 08:07:22;;;;;;;14.80;14.00;;;;;;;-141.22;100.00;65034.22;5032083;28;20471;-43
2023/10/28 08:09:50;;;;;;;14.50;13.60;;;;;;;-141.22;100.00;65034.22;5031538;28;20460;-41
2023/10/28 08:12:17;;;;;;;14.23;13.50;;;;;;;-141.22;100.00;65034.22;5032299;28;20443;-41
2023/10/28 08:14:48;;;;;;;14.20;13.33;;;;;;;-141.22;100.00;65034.22;5031535;28;20795;-40
2023/10/28 08:17:16;;;;;;;13.67;12.80;;;;;;;-141.22;100.00;65034.22;5031943;28;20447;-43
2023/10/28 08:19:43;;;;;;;13.57;12.87;;;;;;;-141.22;100.00;65034.22;5030914;28;20470;-42
2023/10/28 08:22:12;;;;;;;13.33;12.63;;;;;;;-141.22;100.00;65034.22;5032069;28;20941;-42
2023/10/28 08:24:41;;;;;;;14.33;13.53;;;;;;;-141.22;100.00;65034.22;5029066;28;20456;-42
2023/10/28 08:27:09;;;;;;;15.27;14.17;;;;;;;-141.22;100.00;65034.22;5031248;28;20443;-42
2023/10/28 08:29:37;;;;;;;14.03;13.33;;;;;;;-141.22;100.00;65034.22;5030782;28;20881;-44
2023/10/28 08:32:07;;;;;;;14.13;13.40;;;;;;;-141.22;100.00;65034.22;5031537;28;20472;-43
2023/10/28 08:34:34;;;;;;;13.37;12.47;;;;;;;-141.22;100.00;65034.22;5031215;28;20444;-46
2023/10/28 08:37:02;;;;;;;13.70;12.93;;;;;;;-141.22;100.00;65034.22;5031415;28;20478;-42
2023/10/28 08:39:31;;;;;;;15.57;14.77;;;;;;;-141.22;100.00;65034.22;5031208;28;20833;-42
2023/10/28 08:42:05;;;;;;;14.63;13.93;;;;;;;-141.22;100.00;65034.22;5031201;28;20838;-45
2023/10/28 08:44:34;;;;;;;14.00;13.30;;;;;;;-141.22;100.00;65034.22;5031717;28;20486;-44
2023/10/28 08:47:06;;;;;;;14.57;13.60;;;;;;;-141.22;100.00;65034.22;5031422;28;20809;-40
2023/10/28 08:49:38;;;;;;;13.40;12.70;;;;;;;-141.22;100.00;65034.22;5030928;28;20864;-46
2023/10/28 08:52:10;;;;;;;14.53;13.53;;;;;;;-141.22;100.00;65034.22;5031559;28;20466;-41
2023/10/28 08:54:38;;;;;;;13.27;12.60;;;;;;;-141.22;100.00;65034.22;5031339;28;20444;-44
2023/10/28 08:57:08;;;;;;;13.63;12.70;;;;;;;-141.22;100.00;65034.22;5031525;28;20436;-45
2023/10/28 08:59:36;;;;;;;12.77;11.97;;;;;;;-141.22;100.00;65034.22;5030395;28;20472;-46
2023/10/28 09:02:08;;;;;;;12.40;11.90;;;;;;;-141.22;100.00;65034.22;5031379;28;20441;-45
2023/10/28 09:04:37;;;;;;;12.77;12.10;;;;;;;-141.22;100.00;65034.22;5030673;28;20436;-43
2023/10/28 09:07:05;;;;;;;12.70;12.10;;;;;;;-141.22;100.00;65034.22;5031208;28;20527;-43
2023/10/28 09:09:37;;;;;;;12.93;12.20;;;;;;;-141.22;100.00;65034.22;5031190;28;21036;-41
2023/10/28 09:12:07;;;;;;;12.43;11.83;;;;;;;-141.22;100.00;65034.22;5032570;28;20527;-43
2023/10/28 09:14:35;;;;;;;13.37;12.77;;;;;;;-141.22;100.00;65034.22;5031521;28;20943;-41
2023/10/28 09:17:03;;;;;;;12.53;12.03;;;;;;;-141.22;100.00;65034.22;5030662;28;20475;-41
2023/10/28 09:19:31;;;;;;;11.20;10.70;;;;;;;-141.22;100.00;65034.22;5031486;28;20468;-44
2023/10/28 09:22:00;;;;;;;12.20;11.50;;;;;;;-141.22;100.00;65034.22;5031903;28;20463;-42
2023/10/28 09:24:28;;;;;;;12.30;11.70;;;;;;;-141.22;100.00;65034.22;5030902;28;20518;-44
2023/10/28 09:26:55;;;;;;;11.80;11.30;;;;;;;-141.22;100.00;65034.22;5030358;28;21003;-44
2023/10/28 09:29:25;;;;;;;12.13;11.63;;;;;;;-141.22;100.00;65034.22;5029622;28;20476;-44
2023/10/28 09:31:53;;;;;;;12.90;12.30;;;;;;;-141.22;100.00;65034.22;5030757;28;20531;-42
2023/10/28 09:34:24;;;;;;;13.60;12.90;;;;;;;-141.22;100.00;65034.22;5030943;28;20436;-44
2023/10/28 09:36:53;;;;;;;13.90;13.30;;;;;;;-141.22;100.00;65034.22;5030532;28;20535;-44
2023/10/28 09:39:24;;;;;;;14.67;13.97;;;;;;;-141.22;100.00;65034.22;5029635;28;21029;-44
2023/10/28 09:41:53;;;;;;;13.87;13.07;;;;;;;-141.22;100.00;65034.22;5030451;28;20464;-43
2023/10/28 09:44:21;;;;;;;13.30;12.60;;;;;;;-141.22;100.00;65034.22;5030854;28;20867;-41
2023/10/28 09:46:51;;;;;;;12.60;12.00;;;;;;;-141.22;100.00;65034.22;5030798;28;20432;-46
2023/10/28 09:49:22;;;;;;;13.13;12.53;;;;;;;-141.22;100.00;65034.22;5030668;28;20507;-44
2023/10/28 09:51:53;;;;;;;11.40;10.80;;;;;;;-141.22;100.00;65034.22;5031165;28;20436;-44
2023/10/28 09:54:27;;;;;;;10.23;9.83;;;;;;;-141.22;100.00;65034.22;5031985;28;20440;-42
2023/10/28 09:56:59;;;;;;;11.43;10.93;;;;;;;-141.22;100.00;65034.22;5035239;28;20486;-45
2023/10/28 09:59:30;;;;;;;11.37;10.87;;;;;;;-141.22;100.00;65034.22;5034662;28;20471;-44
2023/10/28 10:02:13;;;;;;;10.93;10.63;;;;;;;-141.22;100.00;65034.22;5034730;28;20515;-46
2023/10/28 10:04:45;;;;;;;11.10;10.60;;;;;;;-141.22;100.00;65034.22;5034696;28;20531;-44
2023/10/28 10:07:13;;;;;;;11.73;11.13;;;;;;;-141.22;100.00;65034.22;5034302;28;20468;-45
2023/10/28 10:09:43;;;;;;;11.87;11.20;;;;;;;-141.22;100.00;65034.22;5034023;28;20460;-45
2023/10/28 10:12:11;;;;;;;11.90;11.30;;;;;;;-141.22;100.00;65034.22;5034664;28;20458;-45
2023/10/28 10:14:46;;;;;;;12.67;12.07;;;;;;;-141.22;100.00;65034.22;5032814;28;20436;-44
2023/10/28 10:17:22;;;;;;;12.10;11.60;;;;;;;-141.22;100.00;65034.22;5034113;28;20852;-42
2023/10/28 10:19:52;;;;;;;11.53;11.13;;;;;;;-141.22;100.00;65034.22;5033412;28;20539;-42
2023/10/28 10:22:29;;;;;;;12.43;11.83;;;;;;;-141.22;100.00;65034.22;5034558;28;20433;-44
2023/10/28 10:24:58;;;;;;;11.20;10.80;;;;;;;-141.22;100.00;65034.22;5033875;28;20470;-42
2023/10/28 10:27:36;;;;;;;12.17;11.60;;;;;;;-141.22;100.00;65034.22;5033856;28;21016;-42
2023/10/28 10:30:05;;;;;;;11.40;10.63;;;;;;;-141.22;100.00;65034.22;5025928;28;20834;-42
2023/10/28 10:32:41;;;;;;;11.50;10.90;;;;;;;-141.22;100.00;65034.22;5034149;28;20437;-43
2023/10/28 10:35:14;;;;;;;11.30;10.80;;;;;;;-141.22;100.00;65034.22;5033963;28;21015;-42
2023/10/28 10:37:41;;;;;;;11.67;11.27;;;;;;;-141.22;100.00;65034.22;5030907;28;20429;-42
2023/10/28 10:40:13;;;;;;;12.40;11.90;;;;;;;-141.22;100.00;65034.22;5033175;28;20480;-42
2023/10/28 10:42:41;;;;;;;12.30;11.73;;;;;;;-141.22;100.00;65034.22;5034056;28;20433;-42
2023/10/28 10:45:09;;;;;;;11.87;11.47;;;;;;;-141.22;100.00;65034.22;5034061;28;20440;-44
2023/10/28 10:47:37;;;;;;;12.50;12.00;;;;;;;-141.22;100.00;65034.22;5033337;28;20439;-44
2023/10/28 10:50:08;;;;;;;12.03;11.53;;;;;;;-141.22;100.00;65034.22;5033097;28;20456;-46
2023/10/28 10:52:36;;;;;;;10.97;10.67;;;;;;;-141.22;100.00;65034.22;5034372;28;20443;-42
2023/10/28 10:55:05;;;;;;;11.57;11.07;;;;;;;-141.22;100.00;65034.22;5033753;28;20857;-42
2023/10/28 10:57:36;;;;;;;11.37;10.97;;;;;;;-141.22;100.00;65034.22;5034004;28;20501;-42
2023/10/28 11:00:11;;;;;;;12.90;12.40;;;;;;;-141.22;100.00;65034.22;5033035;28;20472;-43